createdAt,value
2019-03-09T00:00:48.423Z,10.30
2019-03-09T00:03:14.988Z,10.30
2019-03-09T00:05:41.136Z,10.40
2019-03-09T00:08:07.660Z,10.40
2019-03-09T00:10:33.824Z,10.50
2019-03-09T00:13:00.019Z,10.50
2019-03-09T00:15:26.468Z,10.50
2019-03-09T00:17:52.664Z,10.60
2019-03-09T00:20:18.800Z,10.60
2019-03-09T00:22:46.890Z,10.70
2019-03-09T00:25:14.954Z,10.70
2019-03-09T00:27:43.055Z,10.70
2019-03-09T00:30:13.989Z,10.80
2019-03-09T00:32:40.262Z,10.80
2019-03-09T00:35:06.427Z,10.90
2019-03-09T00:37:32.618Z,10.90
2019-03-09T00:39:58.802Z,10.90
2019-03-09T00:42:25.013Z,11.00
2019-03-09T00:44:51.472Z,11.00
2019-03-09T00:47:18.187Z,11.00
2019-03-09T00:49:44.406Z,11.10
2019-03-09T00:52:10.633Z,11.10
2019-03-09T00:54:36.770Z,11.10
2019-03-09T00:57:02.951Z,11.10
2019-03-09T00:59:29.101Z,11.10
2019-03-09T01:01:55.248Z,11.10
2019-03-09T01:04:21.463Z,11.20
2019-03-09T01:06:47.907Z,11.20
2019-03-09T01:09:14.218Z,11.20
2019-03-09T01:11:40.397Z,11.30
2019-03-09T01:14:06.832Z,11.30
2019-03-09T01:16:33.257Z,11.30
2019-03-09T01:18:59.435Z,11.40
2019-03-09T01:21:25.589Z,11.40
2019-03-09T01:23:51.773Z,11.40
2019-03-09T01:26:17.917Z,11.50
2019-03-09T01:28:44.085Z,11.50
2019-03-09T01:31:10.361Z,11.50
2019-03-09T01:33:36.533Z,11.50
2019-03-09T01:36:02.770Z,11.50
2019-03-09T01:38:29.271Z,11.40
2019-03-09T01:40:55.411Z,11.40
2019-03-09T01:43:21.582Z,11.40
2019-03-09T01:45:47.798Z,11.30
2019-03-09T01:48:14.025Z,11.30
2019-03-09T01:50:41.080Z,11.30
2019-03-09T01:53:07.433Z,11.30
2019-03-09T01:55:33.606Z,11.20
2019-03-09T01:57:59.817Z,11.20
2019-03-09T02:00:25.977Z,11.20
2019-03-09T02:02:52.156Z,11.30
2019-03-09T02:05:18.338Z,11.20
2019-03-09T02:07:44.509Z,11.30
2019-03-09T02:10:12.597Z,11.30
2019-03-09T02:12:38.883Z,11.30
2019-03-09T02:15:08.907Z,11.30
2019-03-09T02:17:35.059Z,11.40
2019-03-09T02:20:02.358Z,11.40
2019-03-09T02:22:28.505Z,11.40
2019-03-09T02:24:54.676Z,11.50
2019-03-09T02:27:20.833Z,11.50
2019-03-09T02:29:47.480Z,11.50
2019-03-09T02:32:13.619Z,11.50
2019-03-09T02:34:39.801Z,11.50
2019-03-09T02:37:05.997Z,11.50
2019-03-09T02:39:34.105Z,11.50
2019-03-09T02:42:00.272Z,11.50
2019-03-09T02:44:26.454Z,11.50
2019-03-09T02:46:52.613Z,11.50
2019-03-09T02:49:18.808Z,11.50
2019-03-09T02:51:45.029Z,11.50
2019-03-09T02:54:11.203Z,11.50
2019-03-09T02:56:37.358Z,11.50
2019-03-09T02:59:03.538Z,11.40
2019-03-09T03:01:31.609Z,11.40
2019-03-09T03:03:57.788Z,11.40
2019-03-09T03:06:23.937Z,11.40
2019-03-09T03:08:50.262Z,11.40
2019-03-09T03:11:16.533Z,11.40
2019-03-09T03:13:42.976Z,11.30
2019-03-09T03:16:09.144Z,11.30
2019-03-09T03:18:35.288Z,11.30
2019-03-09T03:21:01.470Z,11.30
2019-03-09T03:23:27.610Z,11.30
2019-03-09T03:25:53.813Z,11.20
2019-03-09T03:28:19.968Z,11.20
2019-03-09T03:30:46.162Z,11.20
2019-03-09T03:33:12.413Z,11.10
2019-03-09T03:35:38.581Z,11.10
2019-03-09T03:38:04.733Z,11.10
2019-03-09T03:40:31.235Z,11.10
2019-03-09T03:42:57.395Z,11.00
2019-03-09T03:45:23.571Z,11.00
2019-03-09T03:47:49.748Z,11.00
2019-03-09T03:50:15.938Z,11.00
2019-03-09T03:52:42.099Z,11.00
2019-03-09T03:55:09.014Z,11.00
2019-03-09T03:57:35.746Z,11.00
2019-03-09T04:00:14.214Z,10.90
2019-03-09T04:02:40.462Z,10.90
2019-03-09T04:05:06.768Z,10.90
2019-03-09T04:07:32.931Z,10.90
2019-03-09T04:09:59.154Z,11.00
2019-03-09T04:12:25.399Z,11.00
2019-03-09T04:14:51.597Z,11.00
2019-03-09T04:17:17.710Z,11.00
2019-03-09T04:19:43.912Z,11.00
2019-03-09T04:22:10.071Z,11.00
2019-03-09T04:24:38.194Z,11.00
2019-03-09T04:27:04.428Z,11.00
2019-03-09T04:29:30.607Z,11.00
2019-03-09T04:31:56.848Z,11.00
2019-03-09T04:34:23.006Z,11.00
2019-03-09T04:36:57.709Z,11.00
2019-03-09T04:39:23.846Z,11.00
2019-03-09T04:41:53.150Z,11.00
2019-03-09T04:44:19.772Z,11.00
2019-03-09T04:46:45.940Z,11.00
2019-03-09T04:49:12.104Z,11.00
2019-03-09T04:51:38.271Z,11.00
2019-03-09T04:54:04.684Z,11.00
2019-03-09T04:56:30.925Z,11.00
2019-03-09T04:58:57.091Z,11.10
2019-03-09T05:01:23.302Z,11.10
2019-03-09T05:04:19.114Z,11.10
2019-03-09T05:06:45.285Z,11.10
2019-03-09T05:09:20.440Z,11.10
2019-03-09T05:11:46.616Z,11.20
2019-03-09T05:14:13.033Z,11.20
2019-03-09T05:16:52.928Z,11.20
2019-03-09T05:19:19.059Z,11.20
2019-03-09T05:21:45.523Z,11.20
2019-03-09T05:24:11.665Z,11.20
2019-03-09T05:26:37.880Z,11.30
2019-03-09T05:29:04.076Z,11.30
2019-03-09T05:31:30.310Z,11.30
2019-03-09T05:33:56.835Z,11.30
2019-03-09T05:36:23.394Z,11.40
2019-03-09T05:38:51.168Z,11.40
2019-03-09T05:41:18.016Z,11.40
2019-03-09T05:43:44.174Z,11.40
2019-03-09T05:46:10.663Z,11.50
2019-03-09T05:48:36.808Z,11.50
2019-03-09T05:51:02.988Z,11.50
2019-03-09T05:53:29.120Z,11.60
2019-03-09T05:55:55.609Z,11.60
2019-03-09T05:58:21.762Z,11.60
2019-03-09T06:00:47.960Z,11.70
2019-03-09T06:03:14.495Z,11.70
2019-03-09T06:05:44.302Z,11.70
2019-03-09T06:08:10.440Z,11.80
2019-03-09T06:10:36.750Z,11.70
2019-03-09T06:13:03.561Z,11.80
2019-03-09T06:15:30.135Z,11.80
2019-03-09T06:17:56.282Z,11.70
2019-03-09T06:20:22.689Z,11.70
2019-03-09T06:22:48.826Z,11.60
2019-03-09T06:25:15.006Z,11.60
2019-03-09T06:27:41.274Z,11.50
2019-03-09T06:30:10.207Z,11.50
2019-03-09T06:32:42.091Z,11.40
2019-03-09T06:35:12.862Z,11.40
2019-03-09T06:37:44.240Z,11.30
2019-03-09T06:40:10.390Z,11.30
2019-03-09T06:42:44.361Z,11.20
2019-03-09T06:45:11.397Z,11.20
2019-03-09T06:47:37.573Z,11.10
2019-03-09T06:50:13.092Z,11.10
2019-03-09T06:52:39.592Z,11.00
2019-03-09T06:55:09.842Z,11.00
2019-03-09T06:57:35.993Z,10.90
2019-03-09T07:00:22.573Z,10.90
2019-03-09T07:02:48.730Z,10.90
2019-03-09T07:05:14.922Z,10.90
2019-03-09T07:07:41.271Z,10.90
2019-03-09T07:10:07.850Z,10.90
2019-03-09T07:12:34.035Z,10.90
2019-03-09T07:15:19.593Z,11.00
2019-03-09T07:17:45.879Z,11.00
2019-03-09T07:20:13.129Z,11.00
2019-03-09T07:22:39.467Z,11.00
2019-03-09T07:25:06.742Z,11.00
2019-03-09T07:27:32.937Z,11.00
2019-03-09T07:29:59.084Z,11.00
2019-03-09T07:32:25.379Z,11.00
2019-03-09T07:34:51.541Z,10.90
2019-03-09T07:37:17.775Z,10.90
2019-03-09T07:39:43.986Z,10.90
2019-03-09T07:42:10.173Z,10.90
2019-03-09T07:44:36.331Z,10.80
2019-03-09T07:47:02.862Z,10.80
2019-03-09T07:49:29.019Z,10.70
2019-03-09T07:51:55.202Z,10.70
2019-03-09T07:54:24.264Z,10.60
2019-03-09T07:56:50.465Z,10.60
2019-03-09T07:59:16.603Z,10.60
2019-03-09T08:01:42.839Z,10.60
2019-03-09T08:04:09.019Z,10.60
2019-03-09T08:06:35.190Z,10.60
2019-03-09T08:09:01.422Z,10.70
2019-03-09T08:11:27.796Z,10.70
2019-03-09T08:14:13.858Z,10.80
2019-03-09T08:16:40.029Z,10.90
2019-03-09T08:19:06.210Z,11.00
2019-03-09T08:21:32.378Z,11.30
2019-03-09T08:23:58.538Z,11.80
2019-03-09T08:26:24.681Z,12.30
2019-03-09T08:28:50.906Z,12.90
2019-03-09T08:31:17.069Z,13.40
2019-03-09T08:33:43.468Z,13.90
2019-03-09T08:36:09.665Z,14.20
2019-03-09T08:38:35.824Z,14.60
2019-03-09T08:41:02.341Z,15.10
2019-03-09T08:43:28.527Z,15.40
2019-03-09T08:45:54.759Z,15.80
2019-03-09T08:48:21.018Z,16.20
2019-03-09T08:50:47.378Z,16.50
2019-03-09T08:53:13.565Z,16.80
2019-03-09T08:58:06.441Z,17.60
2019-03-09T09:00:33.983Z,18.20
2019-03-09T09:03:00.142Z,18.70
2019-03-09T09:05:26.395Z,19.10
2019-03-09T09:07:52.572Z,19.50
2019-03-09T09:10:18.727Z,19.80
2019-03-09T09:12:45.698Z,20.00
2019-03-09T09:15:16.435Z,20.30
2019-03-09T09:17:42.735Z,20.50
2019-03-09T09:20:22.107Z,20.80
2019-03-09T09:22:48.379Z,21.20
2019-03-09T09:25:14.673Z,21.40
2019-03-09T09:27:41.094Z,21.60
2019-03-09T09:30:15.909Z,21.70
2019-03-09T09:32:42.086Z,21.70
2019-03-09T09:35:10.867Z,21.90
2019-03-09T09:37:37.210Z,22.10
2019-03-09T09:40:14.612Z,22.40
2019-03-09T09:42:40.894Z,22.60
2019-03-09T09:45:11.339Z,22.80
2019-03-09T09:47:57.394Z,22.90
2019-03-09T09:50:23.557Z,22.80
2019-03-09T09:52:49.920Z,22.60
2019-03-09T09:55:18.972Z,22.50
2019-03-09T09:57:45.193Z,22.50
2019-03-09T10:00:26.754Z,22.60
2019-03-09T10:02:52.951Z,22.70
2019-03-09T10:05:19.455Z,22.90
2019-03-09T10:07:45.624Z,23.10
2019-03-09T10:10:17.244Z,23.30
2019-03-09T10:12:43.494Z,23.50
2019-03-09T10:15:13.583Z,23.70
2019-03-09T10:17:39.722Z,24.00
2019-03-09T10:20:09.538Z,24.10
2019-03-09T10:22:35.693Z,24.20
2019-03-09T10:25:03.065Z,24.30
2019-03-09T10:27:29.194Z,24.30
2019-03-09T10:29:55.642Z,24.30
2019-03-09T10:32:21.801Z,24.20
2019-03-09T10:34:47.991Z,24.10
2019-03-09T10:37:14.155Z,23.90
2019-03-09T10:39:40.660Z,23.70
2019-03-09T10:42:06.814Z,23.40
2019-03-09T10:44:33.043Z,23.00
2019-03-09T10:46:59.211Z,22.70
2019-03-09T10:49:25.484Z,22.30
2019-03-09T10:51:51.629Z,22.00
2019-03-09T10:54:17.837Z,21.80
2019-03-09T10:56:44.293Z,21.60
2019-03-09T10:59:10.484Z,21.40
2019-03-09T11:01:36.911Z,21.20
2019-03-09T11:04:03.159Z,21.10
2019-03-09T11:06:29.336Z,21.00
2019-03-09T11:08:55.495Z,20.80
2019-03-09T11:11:21.686Z,20.70
2019-03-09T11:13:51.943Z,20.50
2019-03-09T11:16:16.080Z,20.40
2019-03-09T11:18:42.223Z,20.20
2019-03-09T11:21:08.414Z,20.10
2019-03-09T11:23:34.683Z,19.90
2019-03-09T11:26:00.862Z,19.70
2019-03-09T11:28:27.106Z,19.60
2019-03-09T11:30:53.299Z,19.40
2019-03-09T11:33:19.447Z,19.30
2019-03-09T11:35:45.628Z,19.20
2019-03-09T11:38:11.793Z,19.10
2019-03-09T11:40:38.235Z,19.00
2019-03-09T11:43:04.559Z,18.90
2019-03-09T11:45:31.124Z,18.80
2019-03-09T11:47:57.286Z,18.80
2019-03-09T11:50:29.950Z,18.80
2019-03-09T11:52:56.170Z,18.80
2019-03-09T11:55:22.320Z,18.70
2019-03-09T11:57:48.749Z,18.60
2019-03-09T12:00:23.005Z,18.50
2019-03-09T12:02:49.143Z,18.50
2019-03-09T12:05:15.349Z,18.40
2019-03-09T12:07:41.524Z,18.40
2019-03-09T12:10:10.929Z,18.40
2019-03-09T12:12:37.565Z,18.30
2019-03-09T12:15:09.011Z,18.40
2019-03-09T12:17:35.158Z,18.40
2019-03-09T12:20:01.527Z,18.40
2019-03-09T12:22:27.751Z,18.40
2019-03-09T12:24:53.915Z,18.40
2019-03-09T12:27:20.164Z,18.40
2019-03-09T12:29:46.305Z,18.30
2019-03-09T12:32:12.489Z,18.30
2019-03-09T12:34:38.722Z,18.20
2019-03-09T12:37:04.933Z,18.10
2019-03-09T12:39:31.085Z,18.00
2019-03-09T12:41:57.299Z,17.90
2019-03-09T12:44:23.470Z,17.70
2019-03-09T12:46:50.903Z,17.50
2019-03-09T12:49:17.149Z,17.30
2019-03-09T12:51:43.406Z,17.10
2019-03-09T12:54:09.947Z,16.90
2019-03-09T12:56:36.186Z,16.70
2019-03-09T12:59:02.335Z,16.50
2019-03-09T13:01:28.511Z,16.40
2019-03-09T13:03:54.913Z,16.20
2019-03-09T13:06:21.113Z,16.00
2019-03-09T13:08:47.258Z,15.90
2019-03-09T13:11:13.763Z,15.70
2019-03-09T13:13:39.977Z,15.50
2019-03-09T13:16:06.144Z,15.40
2019-03-09T13:18:32.283Z,15.30
2019-03-09T13:20:58.465Z,15.20
2019-03-09T13:23:24.624Z,15.10
2019-03-09T13:25:50.850Z,15.00
2019-03-09T13:28:16.990Z,15.00
2019-03-09T13:30:44.108Z,15.00
2019-03-09T13:33:10.254Z,15.00
2019-03-09T13:35:36.433Z,14.90
2019-03-09T13:38:02.572Z,15.00
2019-03-09T13:40:28.780Z,15.00
2019-03-09T13:42:54.959Z,15.00
2019-03-09T13:45:21.458Z,15.00
2019-03-09T13:47:47.619Z,15.00
2019-03-09T13:50:13.876Z,15.00
2019-03-09T13:52:40.366Z,15.00
2019-03-09T13:55:08.895Z,15.10
2019-03-09T13:57:35.081Z,15.10
2019-03-09T14:00:01.526Z,15.10
2019-03-09T14:02:27.691Z,15.10
2019-03-09T14:04:53.850Z,15.10
2019-03-09T14:07:20.027Z,15.00
2019-03-09T14:09:46.459Z,15.00
2019-03-09T14:12:12.659Z,15.00
2019-03-09T14:14:38.795Z,15.00
2019-03-09T14:17:05.265Z,15.00
2019-03-09T14:19:31.414Z,15.00
2019-03-09T14:21:57.598Z,15.00
2019-03-09T14:24:23.740Z,15.00
2019-03-09T14:26:50.457Z,15.10
2019-03-09T14:29:16.675Z,15.00
2019-03-09T14:31:42.847Z,15.00
2019-03-09T14:34:08.986Z,15.00
2019-03-09T14:36:35.177Z,14.90
2019-03-09T14:39:01.322Z,14.90
2019-03-09T14:41:27.895Z,14.80
2019-03-09T14:43:54.036Z,14.80
2019-03-09T14:46:20.210Z,14.70
2019-03-09T14:48:46.590Z,14.70
2019-03-09T14:51:12.727Z,14.60
2019-03-09T14:53:38.896Z,14.70
2019-03-09T14:56:05.189Z,14.60
2019-03-09T14:58:31.322Z,14.60
2019-03-09T15:00:57.582Z,14.60
2019-03-09T15:03:23.752Z,14.60
2019-03-09T15:05:50.191Z,14.60
2019-03-09T15:08:16.649Z,14.60
2019-03-09T15:10:42.793Z,14.60
2019-03-09T15:13:08.992Z,14.60
2019-03-09T15:15:35.145Z,14.60
2019-03-09T15:18:01.310Z,14.70
2019-03-09T15:20:27.483Z,14.70
2019-03-09T15:22:53.651Z,14.70
2019-03-09T15:25:19.787Z,14.80
2019-03-09T15:27:46.405Z,14.80
2019-03-09T15:30:17.442Z,14.80
2019-03-09T15:32:44.082Z,14.80
2019-03-09T15:35:11.078Z,14.90
2019-03-09T15:37:37.347Z,14.90
2019-03-09T15:40:11.206Z,14.90
2019-03-09T15:42:37.379Z,14.90
2019-03-09T15:45:07.942Z,15.00
2019-03-09T15:47:34.373Z,15.00
2019-03-09T15:50:00.510Z,15.10
2019-03-09T15:52:26.684Z,15.10
2019-03-09T15:54:52.975Z,15.20
2019-03-09T15:57:19.165Z,15.20
2019-03-09T15:59:45.314Z,15.30
2019-03-09T16:02:12.542Z,15.30
2019-03-09T16:04:38.694Z,15.40
2019-03-09T16:07:05.575Z,15.40
2019-03-09T16:09:31.891Z,15.40
2019-03-09T16:11:58.069Z,15.50
2019-03-09T16:14:24.316Z,15.50
2019-03-09T16:16:50.829Z,15.50
2019-03-09T16:19:16.977Z,15.50
2019-03-09T16:21:43.165Z,15.50
2019-03-09T16:24:09.798Z,15.40
2019-03-09T16:26:35.966Z,15.40
2019-03-09T16:29:02.111Z,15.30
2019-03-09T16:31:28.280Z,15.30
2019-03-09T16:33:54.446Z,15.20
2019-03-09T16:36:20.643Z,15.20
2019-03-09T16:38:46.782Z,15.10
2019-03-09T16:41:12.975Z,15.00
2019-03-09T16:43:39.102Z,15.00
2019-03-09T16:46:05.296Z,14.90
2019-03-09T16:48:31.459Z,14.90
2019-03-09T16:50:57.607Z,14.80
2019-03-09T16:53:24.166Z,14.70
2019-03-09T16:55:50.319Z,14.70
2019-03-09T16:58:16.523Z,14.60
2019-03-09T17:00:42.682Z,14.60
2019-03-09T17:03:09.184Z,14.50
2019-03-09T17:05:35.623Z,14.50
2019-03-09T17:08:01.932Z,14.50
2019-03-09T17:10:28.074Z,14.40
2019-03-09T17:12:54.299Z,14.40
2019-03-09T17:15:23.046Z,14.40
2019-03-09T17:17:49.211Z,14.40
2019-03-09T17:20:16.456Z,14.40
2019-03-09T17:22:42.889Z,14.40
2019-03-09T17:25:09.441Z,14.40
2019-03-09T17:27:35.592Z,14.40
2019-03-09T17:30:04.406Z,14.40
2019-03-09T17:32:30.849Z,14.40
2019-03-09T17:34:57.038Z,14.40
2019-03-09T17:37:23.211Z,14.40
2019-03-09T17:39:49.385Z,14.40
2019-03-09T17:42:15.598Z,14.40
2019-03-09T17:44:41.744Z,14.40
2019-03-09T17:47:07.969Z,14.50
2019-03-09T17:49:34.124Z,14.50
2019-03-09T17:52:00.304Z,14.50
2019-03-09T17:54:26.510Z,14.50
2019-03-09T17:56:52.698Z,14.50
2019-03-09T17:59:19.110Z,14.50
2019-03-09T18:01:45.256Z,14.50
2019-03-09T18:04:11.436Z,14.50
2019-03-09T18:06:37.588Z,14.50
2019-03-09T18:09:04.808Z,14.40
2019-03-09T18:11:30.947Z,14.40
2019-03-09T18:14:06.626Z,14.30
2019-03-09T18:16:25.174Z,14.30
2019-03-09T18:18:51.346Z,14.30
2019-03-09T18:21:17.501Z,14.30
2019-03-09T18:23:43.686Z,14.20
2019-03-09T18:26:10.176Z,14.20
2019-03-09T18:28:36.359Z,14.20
2019-03-09T18:31:02.847Z,14.20
2019-03-09T18:33:29.050Z,14.10
2019-03-09T18:35:55.203Z,14.10
2019-03-09T18:38:21.791Z,14.10
2019-03-09T18:40:49.760Z,14.00
2019-03-09T18:43:16.383Z,14.00
2019-03-09T18:45:42.835Z,14.00
2019-03-09T18:48:09.007Z,13.90
2019-03-09T18:50:35.172Z,13.90
2019-03-09T18:53:02.597Z,13.80
2019-03-09T18:55:28.738Z,13.70
2019-03-09T18:57:54.919Z,13.70
2019-03-09T19:00:21.087Z,13.70
2019-03-09T19:02:48.354Z,13.60
2019-03-09T19:05:14.561Z,13.60
2019-03-09T19:07:40.935Z,13.50
2019-03-09T19:10:17.642Z,13.40
2019-03-09T19:12:43.807Z,13.40
2019-03-09T19:15:15.251Z,13.30
2019-03-09T19:17:41.399Z,13.20
2019-03-09T19:20:15.529Z,13.00
2019-03-09T19:22:41.671Z,12.90
2019-03-09T19:25:12.907Z,12.80
2019-03-09T19:27:39.046Z,12.60
2019-03-09T19:30:13.668Z,12.50
2019-03-09T19:32:39.819Z,12.50
2019-03-09T19:35:07.587Z,12.20
2019-03-09T19:37:34.065Z,12.10
2019-03-09T19:40:00.402Z,12.00
2019-03-09T19:42:26.742Z,12.00
2019-03-09T19:44:52.927Z,11.90
2019-03-09T19:47:19.238Z,11.90
2019-03-09T19:49:45.712Z,11.90
2019-03-09T19:52:12.086Z,11.90
2019-03-09T19:54:38.539Z,11.90
2019-03-09T19:57:04.689Z,11.80
2019-03-09T19:59:30.851Z,11.80
2019-03-09T20:01:56.999Z,11.80
2019-03-09T20:04:23.235Z,11.70
2019-03-09T20:06:49.703Z,11.70
2019-03-09T20:09:16.254Z,11.70
2019-03-09T20:11:42.391Z,11.70
2019-03-09T20:14:08.675Z,11.70
2019-03-09T20:16:34.824Z,11.70
2019-03-09T20:19:02.997Z,11.80
2019-03-09T20:21:29.147Z,11.80
2019-03-09T20:23:55.298Z,11.80
2019-03-09T20:26:21.476Z,11.80
2019-03-09T20:28:47.651Z,11.80
2019-03-09T20:31:13.826Z,11.80
2019-03-09T20:33:43.577Z,11.80
2019-03-09T20:36:09.777Z,11.80
2019-03-09T20:38:36.170Z,11.80
2019-03-09T20:41:02.390Z,11.80
2019-03-09T20:43:28.532Z,11.90
2019-03-09T20:45:54.729Z,11.80
2019-03-09T20:48:20.864Z,11.90
2019-03-09T20:50:47.066Z,11.90
2019-03-09T20:53:13.456Z,11.90
2019-03-09T20:55:39.649Z,11.90
2019-03-09T20:58:05.796Z,11.90
2019-03-09T21:00:32.005Z,11.90
2019-03-09T21:02:58.185Z,11.80
2019-03-09T21:05:24.355Z,11.80
2019-03-09T21:07:50.506Z,11.80
2019-03-09T21:10:18.425Z,11.80
2019-03-09T21:13:07.016Z,11.80
2019-03-09T21:15:34.095Z,11.80
2019-03-09T21:18:00.316Z,11.70
2019-03-09T21:20:26.453Z,11.70
2019-03-09T21:22:52.682Z,11.60
2019-03-09T21:25:18.922Z,11.60
2019-03-09T21:27:45.090Z,11.60
2019-03-09T21:30:11.924Z,11.50
2019-03-09T21:32:38.062Z,11.50
2019-03-09T21:35:04.792Z,11.50
2019-03-09T21:37:31.308Z,11.40
2019-03-09T21:39:57.483Z,11.40
2019-03-09T21:42:23.642Z,11.30
2019-03-09T21:44:49.812Z,11.30
2019-03-09T21:47:15.986Z,11.20
2019-03-09T21:49:42.140Z,11.20
2019-03-09T21:52:08.324Z,11.10
2019-03-09T21:54:34.467Z,11.10
2019-03-09T21:57:00.667Z,11.00
2019-03-09T21:59:26.816Z,11.00
2019-03-09T22:01:53.036Z,10.90
2019-03-09T22:04:19.197Z,10.90
2019-03-09T22:06:45.645Z,10.90
2019-03-09T22:09:11.793Z,10.80
2019-03-09T22:11:37.986Z,10.70
2019-03-09T22:14:04.154Z,10.70
2019-03-09T22:16:30.324Z,10.70
2019-03-09T22:18:56.489Z,10.60
2019-03-09T22:21:22.681Z,10.60
2019-03-09T22:23:48.819Z,10.60
2019-03-09T22:26:15.038Z,10.50
2019-03-09T22:28:41.179Z,10.50
2019-03-09T22:31:07.372Z,10.50
2019-03-09T22:33:33.516Z,10.50
2019-03-09T22:35:59.732Z,10.40
2019-03-09T22:38:25.883Z,10.40
2019-03-09T22:40:52.614Z,10.30
2019-03-09T22:43:18.757Z,10.30
2019-03-09T22:45:44.944Z,10.30
2019-03-09T22:48:11.080Z,10.30
2019-03-09T22:50:37.253Z,10.30
2019-03-09T22:53:03.441Z,10.30
2019-03-09T22:55:29.619Z,10.20
2019-03-09T22:57:55.765Z,10.20
2019-03-09T23:00:24.096Z,10.20
2019-03-09T23:02:50.358Z,10.10
2019-03-09T23:05:16.983Z,10.10
2019-03-09T23:07:43.154Z,10.10
2019-03-09T23:10:12.997Z,10.10
2019-03-09T23:12:39.237Z,10.10
2019-03-09T23:15:10.103Z,10.00
2019-03-09T23:17:42.684Z,10.00
2019-03-09T23:20:12.671Z,10.00
2019-03-09T23:22:45.576Z,10.00
2019-03-09T23:25:12.918Z,10.00
2019-03-09T23:27:39.511Z,9.90
2019-03-09T23:30:19.537Z,9.90
2019-03-09T23:32:46.067Z,9.90
2019-03-09T23:35:13.219Z,9.80
2019-03-09T23:37:39.516Z,9.80
2019-03-09T23:40:09.554Z,9.80
2019-03-09T23:42:35.729Z,9.80
2019-03-09T23:45:03.360Z,9.80
2019-03-09T23:47:29.541Z,9.70
2019-03-09T23:49:55.678Z,9.70
2019-03-09T23:52:21.842Z,9.70
2019-03-09T23:54:47.992Z,9.70
2019-03-09T23:57:14.391Z,9.70
2019-03-09T23:59:40.527Z,9.70
